createdAt,value
2022-09-04T00:02:17.122Z,1.30
2022-09-04T00:04:56.278Z,1.20
2022-09-04T00:07:28.493Z,1.20
2022-09-04T00:10:12.302Z,0.80
2022-09-04T00:12:51.424Z,1.08
2022-09-04T00:15:22.319Z,1.17
2022-09-04T00:18:02.347Z,1.60
2022-09-04T00:20:59.456Z,1.70
2022-09-04T00:23:50.538Z,1.13
2022-09-04T00:26:26.314Z,1.30
2022-09-04T00:29:03.185Z,1.30
2022-09-04T00:31:38.778Z,1.27
2022-09-04T00:34:21.918Z,1.35
2022-09-04T00:39:56.602Z,1.40
2022-09-04T00:42:41.524Z,1.42
2022-09-04T00:45:35.737Z,1.40
2022-09-04T00:48:33.424Z,1.77
2022-09-04T00:51:16.018Z,1.40
2022-09-04T00:54:10.425Z,1.33
2022-09-04T00:57:21.612Z,1.42
2022-09-04T01:00:00.623Z,1.38
2022-09-04T01:02:39.361Z,1.40
2022-09-04T01:05:22.251Z,1.60
2022-09-04T01:07:58.125Z,1.70
2022-09-04T01:11:11.886Z,1.83
2022-09-04T01:14:10.798Z,2.05
2022-09-04T01:16:54.034Z,1.40
2022-09-04T01:19:39.725Z,1.30
2022-09-04T01:22:16.081Z,1.55
2022-09-04T01:24:53.999Z,1.38
2022-09-04T01:27:54.637Z,1.90
2022-09-04T01:30:21.994Z,1.55
2022-09-04T01:33:27.116Z,2.17
2022-09-04T01:36:25.264Z,1.92
2022-09-04T01:38:56.284Z,1.52
2022-09-04T01:41:41.186Z,1.50
2022-09-04T01:44:09.894Z,1.73
2022-09-04T01:46:50.104Z,1.95
2022-09-04T01:49:26.588Z,1.52
2022-09-04T01:52:08.722Z,1.63
2022-09-04T01:54:50.784Z,1.70
2022-09-04T01:57:55.210Z,1.98
2022-09-04T02:00:24.941Z,1.70
2022-09-04T02:03:02.468Z,1.88
2022-09-04T02:05:42.717Z,2.15
2022-09-04T02:08:41.171Z,1.90
2022-09-04T02:11:16.064Z,1.42
2022-09-04T02:14:09.322Z,1.67
2022-09-04T02:17:00.353Z,1.77
2022-09-04T02:19:45.836Z,1.70
2022-09-04T02:22:44.936Z,1.85
2022-09-04T02:25:23.528Z,1.73
2022-09-04T02:28:09.013Z,1.83
2022-09-04T02:30:54.120Z,2.13
2022-09-04T02:33:32.836Z,2.03
2022-09-04T02:36:13.200Z,1.60
2022-09-04T02:38:54.347Z,1.77
2022-09-04T02:41:29.635Z,2.28
2022-09-04T02:44:10.384Z,1.88
2022-09-04T02:46:45.515Z,1.85
2022-09-04T02:49:32.765Z,2.08
2022-09-04T02:52:37.182Z,2.03
2022-09-04T02:55:30.491Z,2.28
2022-09-04T02:58:20.597Z,2.05
2022-09-04T03:01:14.920Z,2.72
2022-09-04T03:04:22.402Z,2.40
2022-09-04T03:07:24.938Z,1.83
2022-09-04T03:10:03.800Z,1.95
2022-09-04T03:12:34.961Z,2.15
2022-09-04T03:15:17.516Z,1.90
2022-09-04T03:17:57.766Z,1.85
2022-09-04T03:20:27.964Z,2.03
2022-09-04T03:23:09.765Z,2.33
2022-09-04T03:25:57.147Z,2.15
2022-09-04T03:29:06.066Z,2.08
2022-09-04T03:31:58.627Z,2.25
2022-09-04T03:34:52.750Z,1.97
2022-09-04T03:37:38.171Z,2.20
2022-09-04T03:40:26.031Z,2.13
2022-09-04T03:43:31.529Z,2.55
2022-09-04T03:46:10.447Z,2.58
2022-09-04T03:48:42.763Z,2.30
2022-09-04T03:51:29.561Z,2.50
2022-09-04T03:54:15.200Z,2.10
2022-09-04T03:56:57.054Z,1.90
2022-09-04T03:59:38.064Z,2.25
2022-09-04T04:02:26.218Z,2.20
2022-09-04T04:05:37.864Z,1.92
2022-09-04T04:08:30.448Z,2.13
2022-09-04T04:11:33.067Z,2.20
2022-09-04T04:14:26.210Z,2.47
2022-09-04T04:17:20.638Z,2.03
2022-09-04T04:19:53.142Z,2.20
2022-09-04T04:22:37.994Z,1.98
2022-09-04T04:25:07.806Z,2.03
2022-09-04T04:27:46.381Z,2.17
2022-09-04T04:30:17.288Z,2.30
2022-09-04T04:33:28.388Z,2.50
2022-09-04T04:36:15.352Z,2.22
2022-09-04T04:39:00.782Z,2.75
2022-09-04T04:42:06.239Z,2.20
2022-09-04T04:45:15.016Z,2.55
2022-09-04T04:47:44.613Z,2.22
2022-09-04T04:50:42.574Z,2.13
2022-09-04T04:53:19.921Z,2.20
2022-09-04T04:55:59.781Z,2.10
2022-09-04T04:58:27.288Z,2.20
2022-09-04T05:00:58.496Z,2.25
2022-09-04T05:03:48.610Z,2.60
2022-09-04T05:06:25.815Z,1.90
2022-09-04T05:09:03.101Z,2.40
2022-09-04T05:11:41.775Z,1.98
2022-09-04T05:14:30.969Z,2.13
2022-09-04T05:17:16.860Z,2.47
2022-09-04T05:20:21.033Z,2.03
2022-09-04T05:23:28.534Z,2.25
2022-09-04T05:25:58.798Z,1.92
2022-09-04T05:28:56.360Z,1.92
2022-09-04T05:31:37.817Z,2.03
2022-09-04T05:34:17.788Z,1.63
2022-09-04T05:37:08.963Z,1.77
2022-09-04T05:39:53.954Z,2.38
2022-09-04T05:42:59.049Z,2.40
2022-09-04T05:45:54.075Z,1.95
2022-09-04T05:49:00.038Z,1.98
2022-09-04T05:51:36.512Z,2.10
2022-09-04T05:54:15.797Z,2.50
2022-09-04T05:56:56.094Z,2.40
2022-09-04T05:59:25.907Z,4.10
2022-09-04T06:02:07.087Z,2.80
2022-09-04T06:05:08.256Z,2.28
2022-09-04T06:07:53.823Z,2.15
2022-09-04T06:10:35.704Z,1.73
2022-09-04T06:13:05.258Z,2.72
2022-09-04T06:16:05.981Z,3.28
2022-09-04T06:19:08.081Z,3.33
2022-09-04T06:21:38.291Z,2.45
2022-09-04T06:24:13.981Z,2.22
2022-09-04T06:27:05.436Z,2.45
2022-09-04T06:29:41.191Z,2.38
2022-09-04T06:32:37.178Z,2.50
2022-09-04T06:35:23.800Z,2.17
2022-09-04T06:38:18.301Z,2.55
2022-09-04T06:41:03.348Z,1.95
2022-09-04T06:43:54.538Z,2.10
2022-09-04T06:46:42.592Z,2.40
2022-09-04T06:49:36.162Z,2.17
2022-09-04T06:57:55.864Z,2.25
2022-09-04T07:00:25.331Z,2.05
2022-09-04T07:03:04.731Z,2.38
2022-09-04T07:05:47.794Z,2.38
2022-09-04T07:08:25.188Z,1.73
2022-09-04T07:11:17.200Z,2.08
2022-09-04T07:14:17.049Z,2.00
2022-09-04T07:16:51.828Z,2.38
2022-09-04T07:19:49.526Z,2.13
2022-09-04T07:22:43.255Z,1.92
2022-09-04T07:25:32.814Z,2.33
2022-09-04T07:28:22.781Z,2.42
2022-09-04T07:31:04.814Z,2.58
2022-09-04T07:34:11.081Z,1.80
2022-09-04T07:37:05.763Z,2.10
2022-09-04T07:39:35.715Z,1.58
2022-09-04T07:42:28.032Z,2.17
2022-09-04T07:45:25.052Z,2.33
2022-09-04T07:48:22.781Z,1.90
2022-09-04T07:51:03.198Z,2.00
2022-09-04T07:53:39.683Z,2.00
2022-09-04T07:56:18.600Z,1.95
2022-09-04T07:59:13.249Z,1.80
2022-09-04T08:02:08.739Z,1.98
2022-09-04T08:04:38.182Z,1.83
2022-09-04T08:07:12.664Z,1.60
2022-09-04T08:09:49.041Z,1.65
2022-09-04T08:12:48.813Z,1.80
2022-09-04T08:15:24.341Z,1.63
2022-09-04T08:18:36.469Z,1.95
2022-09-04T08:21:43.041Z,1.52
2022-09-04T08:24:21.606Z,1.60
2022-09-04T08:27:03.071Z,1.60
2022-09-04T08:29:40.965Z,1.73
2022-09-04T08:33:06.930Z,1.60
2022-09-04T08:35:38.816Z,1.55
2022-09-04T08:38:28.788Z,1.52
2022-09-04T08:41:06.859Z,1.95
2022-09-04T08:43:55.383Z,1.60
2022-09-04T08:46:34.237Z,1.50
2022-09-04T08:49:23.529Z,1.70
2022-09-04T08:52:25.488Z,1.33
2022-09-04T08:55:05.767Z,1.73
2022-09-04T08:57:32.523Z,1.65
2022-09-04T09:00:06.919Z,1.17
2022-09-04T09:03:11.040Z,1.70
2022-09-04T09:06:07.126Z,2.08
2022-09-04T09:08:55.578Z,1.77
2022-09-04T09:11:41.237Z,1.55
2022-09-04T09:14:31.785Z,1.30
2022-09-04T09:17:26.160Z,1.80
2022-09-04T09:20:20.173Z,1.33
2022-09-04T09:23:17.376Z,1.60
2022-09-04T09:26:06.613Z,1.88
2022-09-04T09:28:55.291Z,2.50
2022-09-04T09:32:03.806Z,1.85
2022-09-04T09:34:58.869Z,1.85
2022-09-04T09:37:44.457Z,1.80
2022-09-04T09:40:37.004Z,1.50
2022-09-04T09:43:09.917Z,1.70
2022-09-04T09:46:04.887Z,1.30
2022-09-04T09:49:05.105Z,1.40
2022-09-04T09:52:00.133Z,1.83
2022-09-04T09:54:48.244Z,1.30
2022-09-04T09:57:39.092Z,1.52
2022-09-04T10:00:18.686Z,1.13
2022-09-04T10:03:25.131Z,1.40
2022-09-04T10:06:11.656Z,1.35
2022-09-04T10:08:48.904Z,1.20
2022-09-04T10:12:00.009Z,1.33
2022-09-04T10:14:33.406Z,1.02
2022-09-04T10:17:15.949Z,1.38
2022-09-04T10:20:09.897Z,1.20
2022-09-04T10:22:39.679Z,0.98
2022-09-04T10:25:43.356Z,1.35
2022-09-04T10:28:40.851Z,2.22
2022-09-04T10:31:26.947Z,1.58
2022-09-04T10:34:24.273Z,1.80
2022-09-04T10:37:01.645Z,1.35
2022-09-04T10:39:57.238Z,1.33
2022-09-04T10:42:33.004Z,0.90
2022-09-04T10:45:32.848Z,1.23
2022-09-04T10:48:33.455Z,1.05
2022-09-04T10:51:03.269Z,1.13
2022-09-04T10:54:08.397Z,1.10
2022-09-04T10:56:38.295Z,1.00
2022-09-04T10:59:24.805Z,2.20
2022-09-04T11:02:16.813Z,1.30
2022-09-04T11:05:01.721Z,1.23
2022-09-04T11:08:09.412Z,1.10
2022-09-04T11:10:48.447Z,1.20
2022-09-04T11:13:51.136Z,1.45
2022-09-04T11:16:39.614Z,1.13
2022-09-04T11:19:43.599Z,1.40
2022-09-04T11:22:34.569Z,2.95
2022-09-04T11:25:33.128Z,1.60
2022-09-04T11:28:36.270Z,1.23
2022-09-04T11:34:08.145Z,1.25
2022-09-04T11:37:16.817Z,1.20
2022-09-04T11:40:03.497Z,1.20
2022-09-04T11:42:41.357Z,1.30
2022-09-04T11:45:34.058Z,2.25
2022-09-04T11:48:10.065Z,1.80
2022-09-04T11:50:57.218Z,1.40
2022-09-04T11:53:33.352Z,1.02
2022-09-04T11:56:09.336Z,1.08
2022-09-04T11:58:57.308Z,1.33
2022-09-04T12:01:47.546Z,1.80
2022-09-04T12:04:37.587Z,1.33
2022-09-04T12:07:42.748Z,0.90
2022-09-04T12:10:38.365Z,1.25
2022-09-04T12:13:43.980Z,1.00
2022-09-04T12:16:19.807Z,1.35
2022-09-04T12:18:56.095Z,1.15
2022-09-04T12:21:54.186Z,1.40
2022-09-04T12:24:52.663Z,1.27
2022-09-04T12:28:00.164Z,1.33
2022-09-04T12:30:40.274Z,1.10
2022-09-04T12:33:36.417Z,1.27
2022-09-04T12:36:24.360Z,1.10
2022-09-04T12:39:40.258Z,0.95
2022-09-04T12:42:32.263Z,1.20
2022-09-04T12:45:59.894Z,0.95
2022-09-04T12:48:57.488Z,1.13
2022-09-04T12:51:25.246Z,1.08
2022-09-04T12:54:09.143Z,1.27
2022-09-04T12:56:49.512Z,1.05
2022-09-04T12:59:18.919Z,1.10
2022-09-04T13:02:14.262Z,0.88
2022-09-04T13:04:59.932Z,1.13
2022-09-04T13:07:44.030Z,0.90
2022-09-04T13:10:47.878Z,1.33
2022-09-04T13:13:44.642Z,0.95
2022-09-04T13:16:14.230Z,0.90
2022-09-04T13:18:58.394Z,1.02
2022-09-04T13:21:59.494Z,0.98
2022-09-04T13:25:05.467Z,0.80
2022-09-04T13:27:43.776Z,1.10
2022-09-04T13:30:22.017Z,1.20
2022-09-04T13:33:16.610Z,2.75
2022-09-04T13:35:59.245Z,1.00
2022-09-04T13:38:53.502Z,1.15
2022-09-04T13:41:31.360Z,1.10
2022-09-04T13:44:29.478Z,1.00
2022-09-04T13:47:04.839Z,0.77
2022-09-04T13:49:47.991Z,1.00
2022-09-04T13:52:29.716Z,1.10
2022-09-04T13:55:34.580Z,0.77
2022-09-04T13:58:10.450Z,0.88
2022-09-04T14:00:46.006Z,0.90
2022-09-04T14:03:44.149Z,0.65
2022-09-04T14:06:15.854Z,0.80
2022-09-04T14:08:45.495Z,0.85
2022-09-04T14:11:45.400Z,2.00
2022-09-04T14:14:41.175Z,1.42
2022-09-04T14:17:09.611Z,0.80
2022-09-04T14:20:11.513Z,1.17
2022-09-04T14:22:48.571Z,0.90
2022-09-04T14:25:51.103Z,0.80
2022-09-04T14:28:41.514Z,0.98
2022-09-04T14:31:46.790Z,1.25
2022-09-04T14:34:52.550Z,1.20
2022-09-04T14:37:48.428Z,0.90
2022-09-04T14:40:26.911Z,1.15
2022-09-04T14:42:58.350Z,1.40
2022-09-04T14:45:46.660Z,0.82
2022-09-04T14:48:15.782Z,0.80
2022-09-04T14:50:49.488Z,0.80
2022-09-04T14:53:34.071Z,1.40
2022-09-04T14:56:10.071Z,0.85
2022-09-04T14:58:52.448Z,2.00
2022-09-04T15:01:24.763Z,1.05
2022-09-04T15:04:12.866Z,1.00
2022-09-04T15:07:10.331Z,0.88
2022-09-04T15:09:43.334Z,1.00
2022-09-04T15:12:25.715Z,1.10
2022-09-04T15:15:07.280Z,0.93
2022-09-04T15:17:39.337Z,0.68
2022-09-04T15:22:39.140Z,0.90
2022-09-04T15:25:08.963Z,0.73
2022-09-04T15:27:49.994Z,1.48
2022-09-04T15:30:18.509Z,1.73
2022-09-04T15:32:46.859Z,0.82
2022-09-04T15:35:23.299Z,0.75
2022-09-04T15:38:04.845Z,1.10
2022-09-04T15:40:37.002Z,1.05
2022-09-04T15:43:16.177Z,1.52
2022-09-04T15:45:51.497Z,1.30
2022-09-04T15:48:38.297Z,2.30
2022-09-04T15:51:32.559Z,0.88
2022-09-04T15:54:11.976Z,0.82
2022-09-04T15:56:53.816Z,1.20
2022-09-04T15:59:30.329Z,1.40
2022-09-04T16:02:12.551Z,1.30
2022-09-04T16:07:22.657Z,1.27
2022-09-04T16:09:54.439Z,1.10
2022-09-04T16:12:27.995Z,1.00
2022-09-04T16:15:08.152Z,1.17
2022-09-04T16:17:47.758Z,1.50
2022-09-04T16:20:35.359Z,1.40
2022-09-04T16:23:08.404Z,1.60
2022-09-04T16:25:40.356Z,1.27
2022-09-04T16:28:10.333Z,1.33
2022-09-04T16:30:43.611Z,1.23
2022-09-04T16:33:27.803Z,2.22
2022-09-04T16:36:13.884Z,3.15
2022-09-04T16:38:52.344Z,2.78
2022-09-04T16:41:37.676Z,2.10
2022-09-04T16:44:26.776Z,1.80
2022-09-04T16:47:04.889Z,3.80
2022-09-04T16:49:58.423Z,3.30
2022-09-04T16:52:40.247Z,2.45
2022-09-04T16:55:08.587Z,2.60
2022-09-04T16:57:51.320Z,1.95
2022-09-04T17:00:18.602Z,1.67
2022-09-04T17:02:50.823Z,1.80
2022-09-04T17:08:06.080Z,1.77
2022-09-04T17:10:42.057Z,1.67
2022-09-04T17:13:21.200Z,3.08
2022-09-04T17:16:01.070Z,6.65
2022-09-04T17:18:30.423Z,3.00
2022-09-04T17:25:57.321Z,2.53
2022-09-04T17:29:12.475Z,1.58
2022-09-04T17:29:18.804Z,1.58
2022-09-04T17:30:56.874Z,1.48
2022-09-04T17:40:33.084Z,1.38
2022-09-04T17:40:40.546Z,2.10
2022-09-04T17:40:50.007Z,1.52
2022-09-04T17:43:26.994Z,1.20
2022-09-04T17:46:26.472Z,1.10
2022-09-04T17:48:53.938Z,2.63
2022-09-04T17:51:27.557Z,2.92
2022-09-04T17:54:01.099Z,2.80
2022-09-04T17:56:33.767Z,2.90
2022-09-04T17:59:16.234Z,1.70
2022-09-04T18:01:51.214Z,2.38
2022-09-04T18:04:33.895Z,1.50
2022-09-04T18:10:17.334Z,2.60
2022-09-04T18:12:52.199Z,1.45
2022-09-04T18:15:42.989Z,1.30
2022-09-04T18:18:18.448Z,2.13
2022-09-04T18:20:53.213Z,3.25
2022-09-04T18:23:51.290Z,4.60
2022-09-04T18:26:35.718Z,4.75
2022-09-04T18:31:25.746Z,3.03
2022-09-04T18:37:08.683Z,3.67
2022-09-04T18:37:20.958Z,3.33
2022-09-04T18:39:09.220Z,3.30
2022-09-04T18:50:30.300Z,2.40
2022-09-04T18:50:34.165Z,1.70
2022-09-04T18:50:44.805Z,1.65
2022-09-04T18:51:25.675Z,2.78
2022-09-04T18:53:58.596Z,7.63
2022-09-04T18:59:18.434Z,6.17
2022-09-04T19:02:04.467Z,2.83
2022-09-04T19:04:56.034Z,3.40
2022-09-04T19:07:37.171Z,2.47
2022-09-04T19:10:31.531Z,2.03
2022-09-04T19:13:05.650Z,2.40
2022-09-04T19:15:58.257Z,6.00
2022-09-04T19:18:30.979Z,3.55
2022-09-04T19:21:14.313Z,3.40
2022-09-04T19:23:41.664Z,2.70
2022-09-04T19:26:18.372Z,3.58
2022-09-04T19:28:53.523Z,2.80
2022-09-04T19:31:43.256Z,4.65
2022-09-04T19:34:19.462Z,4.32
2022-09-04T19:37:13.539Z,2.58
2022-09-04T19:45:54.060Z,1.80
2022-09-04T19:46:04.149Z,2.00
2022-09-04T19:46:11.288Z,8.32
2022-09-04T19:48:51.119Z,3.20
2022-09-04T19:53:32.174Z,4.38
2022-09-04T19:54:54.894Z,5.43
2022-09-04T19:57:48.238Z,2.90
2022-09-04T20:00:43.018Z,1.90
2022-09-04T20:03:33.430Z,2.75
2022-09-04T20:06:20.161Z,2.00
2022-09-04T20:09:01.151Z,3.40
2022-09-04T20:11:39.864Z,4.78
2022-09-04T20:14:14.957Z,3.70
2022-09-04T20:17:11.568Z,3.15
2022-09-04T20:19:52.199Z,2.35
2022-09-04T20:22:47.100Z,2.15
2022-09-04T20:25:51.699Z,2.28
2022-09-04T20:28:48.656Z,4.00
2022-09-04T20:31:36.091Z,3.03
2022-09-04T20:34:33.825Z,2.30
2022-09-04T20:37:28.435Z,2.05
2022-09-04T20:40:07.372Z,1.88
2022-09-04T20:42:58.659Z,1.40
2022-09-04T20:47:59.589Z,1.77
2022-09-04T20:52:56.055Z,2.08
2022-09-04T20:53:05.397Z,1.60
2022-09-04T20:54:10.493Z,1.85
2022-09-04T21:03:05.536Z,1.85
2022-09-04T21:03:19.970Z,1.70
2022-09-04T21:03:34.953Z,1.73
2022-09-04T21:06:12.967Z,1.88
2022-09-04T21:09:06.780Z,1.50
2022-09-04T21:11:58.530Z,1.83
2022-09-04T21:14:45.042Z,1.35
2022-09-04T21:17:34.666Z,1.98
2022-09-04T21:20:59.186Z,2.10
2022-09-04T21:23:56.442Z,1.80
2022-09-04T21:27:06.618Z,2.13
2022-09-04T21:32:40.261Z,1.80
2022-09-04T21:35:19.971Z,2.20
2022-09-04T21:38:26.614Z,1.83
2022-09-04T21:41:03.088Z,1.60
2022-09-04T21:44:04.359Z,1.77
2022-09-04T21:47:08.878Z,1.58
2022-09-04T21:50:15.091Z,1.80
2022-09-04T21:53:17.029Z,2.00
2022-09-04T21:57:45.733Z,1.67
2022-09-04T22:02:37.308Z,1.98
2022-09-04T22:02:41.906Z,2.20
2022-09-04T22:05:00.653Z,1.88
2022-09-04T22:13:18.872Z,1.73
2022-09-04T22:13:43.202Z,2.40
2022-09-04T22:14:07.682Z,1.77
2022-09-04T22:16:54.549Z,1.45
2022-09-04T22:19:53.727Z,1.90
2022-09-04T22:22:48.644Z,1.92
2022-09-04T22:25:45.597Z,2.03
2022-09-04T22:28:31.200Z,1.90
2022-09-04T22:31:01.206Z,2.00
2022-09-04T22:34:16.676Z,1.70
2022-09-04T22:37:10.764Z,1.63
2022-09-04T22:39:57.691Z,2.10
2022-09-04T22:42:33.943Z,2.35
2022-09-04T22:45:30.831Z,2.58
2022-09-04T22:48:25.393Z,2.30
2022-09-04T22:51:24.380Z,2.33
2022-09-04T22:54:06.769Z,2.25
2022-09-04T22:57:01.133Z,2.33
2022-09-04T23:00:03.009Z,2.17
2022-09-04T23:03:10.744Z,2.83
2022-09-04T23:06:27.407Z,1.90
2022-09-04T23:13:43.533Z,2.33
2022-09-04T23:13:58.662Z,2.35
2022-09-04T23:15:23.501Z,2.15
2022-09-04T23:21:10.561Z,1.92
2022-09-04T23:26:34.573Z,2.03
2022-09-04T23:26:53.965Z,1.98
2022-09-04T23:27:26.081Z,2.08
2022-09-04T23:30:26.373Z,2.17
2022-09-04T23:32:56.876Z,2.05
2022-09-04T23:35:26.722Z,1.98
2022-09-04T23:38:19.354Z,2.58
2022-09-04T23:40:53.371Z,1.90
2022-09-04T23:43:42.256Z,1.98
2022-09-04T23:46:27.580Z,2.20
2022-09-04T23:49:30.833Z,1.88
2022-09-04T23:52:08.110Z,2.13
2022-09-04T23:55:03.210Z,2.05
2022-09-04T23:57:52.553Z,2.00
